Stafford, Connecticut
Current Conditions -  °F | °C
As of 4:52 AM on Friday 28 Nov 2014 (Local Time) from KIJD Reporting Station
Overcast Overcast  
Wind Chill: 25°   Ceiling: 6000
Heat Index: 31°   Visibility: 10mi
Dew Point: 25°   Wind: 6mph
Humidity: 79%   Direction: NA
Pressure: 30.02"   Gusts: NA
Location:  41.98°N, 72.29°W
Report Text: KIJD 280952Z AUTO VRB05KT 10SM OVC060 M01/M04 A3002 RMK AO2 SLP168 T10061039
Loading
Personal Weather Stations






























Interactive Weather Map New forecast layout! Learn more

10-Day Weather Forecast

Advertisements
Track Severe Weather on mobile